METAR Data

Data at: 1119 UTC 21 Apr 2021

METAR for:KPVC (Provincetown Muni, MA, US)
Text:KPVC 211056Z AUTO 19010KT 10SM CLR 10/08 A2987 RMK AO2 SLP114 T01000083 $
Temperature: 10.0°C ( 50°F)
Dewpoint: 8.3°C ( 47°F) [RH = 89%]
Pressure (altimeter):29.87 inches Hg (1011.6 mb) [Sea level pressure: 1011.4 mb]
Winds:from the S (190 degrees) at 12 MPH (10 knots; 5.1 m/s)
Visibility:10 or more sm (16+ km)
Ceiling:at least 12,000 feet AGL
Clouds:sky clear below 12,000 feet AGL
QC Flag:automated observation with no human augmentation; SOME DATA ABOVE MAY BE INACCURATE!!!"$" is an indication the sensor requires maintenance.